sensor_id;sensor_type;location;lat;lon;timestamp;temperature;humidity
2202;DHT22;1107;48.654;9.250;2024-02-14T00:00:22;3.60;99.90
2202;DHT22;1107;48.654;9.250;2024-02-14T00:02:50;3.60;99.90
2202;DHT22;1107;48.654;9.250;2024-02-14T00:05:17;3.60;99.90
2202;DHT22;1107;48.654;9.250;2024-02-14T00:07:43;3.50;99.90
2202;DHT22;1107;48.654;9.250;2024-02-14T00:10:10;3.50;99.90
2202;DHT22;1107;48.654;9.250;2024-02-14T00:12:37;3.50;99.90
2202;DHT22;1107;48.654;9.250;2024-02-14T00:15:04;3.60;99.90
2202;DHT22;1107;48.654;9.250;2024-02-14T00:17:32;3.60;99.90
2202;DHT22;1107;48.654;9.250;2024-02-14T00:20:00;3.60;99.90
2202;DHT22;1107;48.654;9.250;2024-02-14T00:22:26;3.70;99.90
2202;DHT22;1107;48.654;9.250;2024-02-14T00:24:53;3.70;99.90
2202;DHT22;1107;48.654;9.250;2024-02-14T00:27:20;3.80;99.90
2202;DHT22;1107;48.654;9.250;2024-02-14T00:29:47;3.80;99.90
2202;DHT22;1107;48.654;9.250;2024-02-14T00:32:13;3.80;99.90
2202;DHT22;1107;48.654;9.250;2024-02-14T00:34:42;3.90;99.90
2202;DHT22;1107;48.654;9.250;2024-02-14T00:37:10;3.90;99.90
2202;DHT22;1107;48.654;9.250;2024-02-14T00:39:36;4.00;99.90
2202;DHT22;1107;48.654;9.250;2024-02-14T00:42:03;4.00;99.90
2202;DHT22;1107;48.654;9.250;2024-02-14T00:44:31;4.10;99.90
2202;DHT22;1107;48.654;9.250;2024-02-14T00:46:57;4.10;99.90
2202;DHT22;1107;48.654;9.250;2024-02-14T00:49:25;4.10;99.90
2202;DHT22;1107;48.654;9.250;2024-02-14T00:51:53;4.10;99.90
2202;DHT22;1107;48.654;9.250;2024-02-14T00:54:20;4.10;99.90
2202;DHT22;1107;48.654;9.250;2024-02-14T00:56:46;4.00;99.90
2202;DHT22;1107;48.654;9.250;2024-02-14T00:59:13;4.00;99.90
2202;DHT22;1107;48.654;9.250;2024-02-14T01:01:40;3.90;99.90
2202;DHT22;1107;48.654;9.250;2024-02-14T01:04:07;3.90;99.90
2202;DHT22;1107;48.654;9.250;2024-02-14T01:06:34;3.80;99.90
2202;DHT22;1107;48.654;9.250;2024-02-14T01:09:02;3.80;99.90
2202;DHT22;1107;48.654;9.250;2024-02-14T01:11:29;3.80;99.90
2202;DHT22;1107;48.654;9.250;2024-02-14T01:13:56;3.90;99.90
2202;DHT22;1107;48.654;9.250;2024-02-14T01:16:24;4.00;99.90
2202;DHT22;1107;48.654;9.250;2024-02-14T01:18:51;4.00;99.90
2202;DHT22;1107;48.654;9.250;2024-02-14T01:21:17;4.10;99.90
2202;DHT22;1107;48.654;9.250;2024-02-14T01:23:44;4.10;99.90
2202;DHT22;1107;48.654;9.250;2024-02-14T01:26:12;4.20;99.90
2202;DHT22;1107;48.654;9.250;2024-02-14T01:28:39;4.20;99.90
2202;DHT22;1107;48.654;9.250;2024-02-14T01:31:08;4.30;99.90
2202;DHT22;1107;48.654;9.250;2024-02-14T01:33:36;4.30;99.90
2202;DHT22;1107;48.654;9.250;2024-02-14T01:36:03;4.40;99.90
2202;DHT22;1107;48.654;9.250;2024-02-14T01:38:30;4.40;99.90
2202;DHT22;1107;48.654;9.250;2024-02-14T01:40:59;4.50;99.90
2202;DHT22;1107;48.654;9.250;2024-02-14T01:43:27;4.50;99.90
2202;DHT22;1107;48.654;9.250;2024-02-14T01:45:53;4.50;99.90
2202;DHT22;1107;48.654;9.250;2024-02-14T01:48:20;4.60;99.90
2202;DHT22;1107;48.654;9.250;2024-02-14T01:50:47;4.60;99.90
2202;DHT22;1107;48.654;9.250;2024-02-14T01:53:14;4.60;99.90
2202;DHT22;1107;48.654;9.250;2024-02-14T01:55:41;4.60;99.90
2202;DHT22;1107;48.654;9.250;2024-02-14T01:58:07;4.60;99.90
2202;DHT22;1107;48.654;9.250;2024-02-14T02:00:35;4.60;99.90
2202;DHT22;1107;48.654;9.250;2024-02-14T02:03:02;4.70;99.90
2202;DHT22;1107;48.654;9.250;2024-02-14T02:05:29;4.60;99.90
2202;DHT22;1107;48.654;9.250;2024-02-14T02:07:56;4.60;99.90
2202;DHT22;1107;48.654;9.250;2024-02-14T02:10:23;4.60;99.90
2202;DHT22;1107;48.654;9.250;2024-02-14T02:12:51;4.60;99.90
2202;DHT22;1107;48.654;9.250;2024-02-14T02:15:18;4.60;99.90
2202;DHT22;1107;48.654;9.250;2024-02-14T02:17:46;4.60;99.90
2202;DHT22;1107;48.654;9.250;2024-02-14T02:20:17;4.60;99.90
2202;DHT22;1107;48.654;9.250;2024-02-14T02:22:46;4.60;99.90
2202;DHT22;1107;48.654;9.250;2024-02-14T02:25:14;4.60;99.90
2202;DHT22;1107;48.654;9.250;2024-02-14T02:27:41;4.70;99.90
2202;DHT22;1107;48.654;9.250;2024-02-14T02:30:08;4.70;99.90
2202;DHT22;1107;48.654;9.250;2024-02-14T02:32:35;4.80;99.90
2202;DHT22;1107;48.654;9.250;2024-02-14T02:35:03;4.90;99.90
2202;DHT22;1107;48.654;9.250;2024-02-14T02:37:30;4.90;99.90
2202;DHT22;1107;48.654;9.250;2024-02-14T02:39:58;4.90;99.90
2202;DHT22;1107;48.654;9.250;2024-02-14T02:42:25;4.90;99.90
2202;DHT22;1107;48.654;9.250;2024-02-14T02:44:52;4.80;99.90
2202;DHT22;1107;48.654;9.250;2024-02-14T02:47:18;4.80;99.90
2202;DHT22;1107;48.654;9.250;2024-02-14T02:49:45;4.80;99.90
2202;DHT22;1107;48.654;9.250;2024-02-14T02:52:12;4.70;99.90
2202;DHT22;1107;48.654;9.250;2024-02-14T02:54:40;4.60;99.90
2202;DHT22;1107;48.654;9.250;2024-02-14T02:57:10;4.80;99.90
2202;DHT22;1107;48.654;9.250;2024-02-14T02:59:37;4.60;99.90
2202;DHT22;1107;48.654;9.250;2024-02-14T03:02:08;4.60;99.90
2202;DHT22;1107;48.654;9.250;2024-02-14T03:04:37;4.60;99.90
2202;DHT22;1107;48.654;9.250;2024-02-14T03:07:04;4.60;99.90
2202;DHT22;1107;48.654;9.250;2024-02-14T03:09:34;4.50;99.90
2202;DHT22;1107;48.654;9.250;2024-02-14T03:12:01;4.50;99.90
2202;DHT22;1107;48.654;9.250;2024-02-14T03:14:30;4.50;99.90
2202;DHT22;1107;48.654;9.250;2024-02-14T03:16:57;4.40;99.90
2202;DHT22;1107;48.654;9.250;2024-02-14T03:19:24;4.40;99.90
2202;DHT22;1107;48.654;9.250;2024-02-14T03:21:52;4.30;99.90
2202;DHT22;1107;48.654;9.250;2024-02-14T03:24:19;4.20;99.90
2202;DHT22;1107;48.654;9.250;2024-02-14T03:26:46;4.20;99.90
2202;DHT22;1107;48.654;9.250;2024-02-14T03:29:12;4.10;99.90
2202;DHT22;1107;48.654;9.250;2024-02-14T03:31:43;4.10;99.90
2202;DHT22;1107;48.654;9.250;2024-02-14T03:34:10;4.00;99.90
2202;DHT22;1107;48.654;9.250;2024-02-14T03:36:37;4.00;99.90
2202;DHT22;1107;48.654;9.250;2024-02-14T03:39:03;4.00;99.90
2202;DHT22;1107;48.654;9.250;2024-02-14T03:41:31;3.90;99.90
2202;DHT22;1107;48.654;9.250;2024-02-14T03:43:58;3.90;99.90
2202;DHT22;1107;48.654;9.250;2024-02-14T03:46:27;4.00;99.90
2202;DHT22;1107;48.654;9.250;2024-02-14T03:48:55;4.10;99.90
2202;DHT22;1107;48.654;9.250;2024-02-14T03:51:23;4.10;99.90
2202;DHT22;1107;48.654;9.250;2024-02-14T03:53:49;4.10;99.90
2202;DHT22;1107;48.654;9.250;2024-02-14T03:56:16;4.10;99.90
2202;DHT22;1107;48.654;9.250;2024-02-14T03:58:43;4.10;99.90
2202;DHT22;1107;48.654;9.250;2024-02-14T04:01:11;4.10;99.90
2202;DHT22;1107;48.654;9.250;2024-02-14T04:03:38;4.20;99.90
2202;DHT22;1107;48.654;9.250;2024-02-14T04:06:06;4.30;99.90
2202;DHT22;1107;48.654;9.250;2024-02-14T04:08:33;4.50;99.90
2202;DHT22;1107;48.654;9.250;2024-02-14T04:11:00;4.70;99.90
2202;DHT22;1107;48.654;9.250;2024-02-14T04:13:27;4.90;99.90
2202;DHT22;1107;48.654;9.250;2024-02-14T04:15:53;5.00;99.90
2202;DHT22;1107;48.654;9.250;2024-02-14T04:18:20;5.10;99.90
2202;DHT22;1107;48.654;9.250;2024-02-14T04:20:47;5.30;99.90
2202;DHT22;1107;48.654;9.250;2024-02-14T04:23:15;5.30;99.90
2202;DHT22;1107;48.654;9.250;2024-02-14T04:25:42;5.30;99.90
2202;DHT22;1107;48.654;9.250;2024-02-14T04:28:08;5.20;99.90
2202;DHT22;1107;48.654;9.250;2024-02-14T04:30:36;5.20;99.90
2202;DHT22;1107;48.654;9.250;2024-02-14T04:33:03;5.10;99.90
2202;DHT22;1107;48.654;9.250;2024-02-14T04:35:31;5.10;99.90
2202;DHT22;1107;48.654;9.250;2024-02-14T04:37:59;5.00;99.90
2202;DHT22;1107;48.654;9.250;2024-02-14T04:40:27;5.00;99.90
2202;DHT22;1107;48.654;9.250;2024-02-14T04:42:54;4.90;99.90
2202;DHT22;1107;48.654;9.250;2024-02-14T04:45:21;4.80;99.90
2202;DHT22;1107;48.654;9.250;2024-02-14T04:47:47;4.70;99.90
2202;DHT22;1107;48.654;9.250;2024-02-14T04:50:14;4.60;99.90
2202;DHT22;1107;48.654;9.250;2024-02-14T04:52:41;4.50;99.90
2202;DHT22;1107;48.654;9.250;2024-02-14T04:55:08;4.50;99.90
2202;DHT22;1107;48.654;9.250;2024-02-14T04:57:36;4.40;99.90
2202;DHT22;1107;48.654;9.250;2024-02-14T05:00:03;4.40;99.90
2202;DHT22;1107;48.654;9.250;2024-02-14T05:02:30;4.30;99.90
2202;DHT22;1107;48.654;9.250;2024-02-14T05:04:57;4.30;99.90
2202;DHT22;1107;48.654;9.250;2024-02-14T05:07:24;4.30;99.90
2202;DHT22;1107;48.654;9.250;2024-02-14T05:09:51;4.30;99.90
2202;DHT22;1107;48.654;9.250;2024-02-14T05:12:17;4.40;99.90
2202;DHT22;1107;48.654;9.250;2024-02-14T05:14:46;4.40;99.90
2202;DHT22;1107;48.654;9.250;2024-02-14T05:17:13;4.50;99.90
2202;DHT22;1107;48.654;9.250;2024-02-14T05:19:41;4.50;99.90
2202;DHT22;1107;48.654;9.250;2024-02-14T05:22:08;4.50;99.90
2202;DHT22;1107;48.654;9.250;2024-02-14T05:24:34;4.50;99.90
2202;DHT22;1107;48.654;9.250;2024-02-14T05:27:03;4.50;99.90
2202;DHT22;1107;48.654;9.250;2024-02-14T05:29:30;4.50;99.90
2202;DHT22;1107;48.654;9.250;2024-02-14T05:31:58;4.50;99.90
2202;DHT22;1107;48.654;9.250;2024-02-14T05:34:25;4.50;99.90
2202;DHT22;1107;48.654;9.250;2024-02-14T05:36:51;4.40;99.90
2202;DHT22;1107;48.654;9.250;2024-02-14T05:39:18;4.40;99.90
2202;DHT22;1107;48.654;9.250;2024-02-14T05:41:45;4.50;99.90
2202;DHT22;1107;48.654;9.250;2024-02-14T05:44:12;4.50;99.90
2202;DHT22;1107;48.654;9.250;2024-02-14T05:46:39;4.40;99.90
2202;DHT22;1107;48.654;9.250;2024-02-14T05:49:08;4.30;99.90
2202;DHT22;1107;48.654;9.250;2024-02-14T05:51:34;4.20;99.90
2202;DHT22;1107;48.654;9.250;2024-02-14T05:54:01;4.20;99.90
2202;DHT22;1107;48.654;9.250;2024-02-14T05:56:28;4.20;99.90
2202;DHT22;1107;48.654;9.250;2024-02-14T05:58:54;4.20;99.90
2202;DHT22;1107;48.654;9.250;2024-02-14T06:01:21;4.10;99.90
2202;DHT22;1107;48.654;9.250;2024-02-14T06:03:48;4.10;99.90
2202;DHT22;1107;48.654;9.250;2024-02-14T06:06:16;4.10;99.90
2202;DHT22;1107;48.654;9.250;2024-02-14T06:08:43;4.00;99.90
2202;DHT22;1107;48.654;9.250;2024-02-14T06:11:10;4.00;99.90
2202;DHT22;1107;48.654;9.250;2024-02-14T06:13:37;4.00;99.90
2202;DHT22;1107;48.654;9.250;2024-02-14T06:16:04;4.10;99.90
2202;DHT22;1107;48.654;9.250;2024-02-14T06:18:31;4.10;99.90
2202;DHT22;1107;48.654;9.250;2024-02-14T06:20:58;4.10;99.90
2202;DHT22;1107;48.654;9.250;2024-02-14T06:23:26;4.20;99.90
2202;DHT22;1107;48.654;9.250;2024-02-14T06:25:53;4.20;99.90
2202;DHT22;1107;48.654;9.250;2024-02-14T06:28:19;4.20;99.90
2202;DHT22;1107;48.654;9.250;2024-02-14T06:30:46;4.30;99.90
2202;DHT22;1107;48.654;9.250;2024-02-14T06:33:13;4.30;99.90
2202;DHT22;1107;48.654;9.250;2024-02-14T06:35:40;4.40;99.90
2202;DHT22;1107;48.654;9.250;2024-02-14T06:38:06;4.50;99.90
2202;DHT22;1107;48.654;9.250;2024-02-14T06:40:34;4.60;99.90
2202;DHT22;1107;48.654;9.250;2024-02-14T06:43:01;4.60;99.90
2202;DHT22;1107;48.654;9.250;2024-02-14T06:45:28;4.60;99.90
2202;DHT22;1107;48.654;9.250;2024-02-14T06:47:55;4.70;99.90
2202;DHT22;1107;48.654;9.250;2024-02-14T06:50:21;4.70;99.90
2202;DHT22;1107;48.654;9.250;2024-02-14T06:52:50;4.70;99.90
2202;DHT22;1107;48.654;9.250;2024-02-14T06:55:17;4.80;99.90
2202;DHT22;1107;48.654;9.250;2024-02-14T06:57:45;4.90;99.90
2202;DHT22;1107;48.654;9.250;2024-02-14T07:00:12;4.90;99.90
2202;DHT22;1107;48.654;9.250;2024-02-14T07:02:39;5.00;99.90
2202;DHT22;1107;48.654;9.250;2024-02-14T07:05:06;5.00;99.90
2202;DHT22;1107;48.654;9.250;2024-02-14T07:07:37;5.10;99.90
2202;DHT22;1107;48.654;9.250;2024-02-14T07:10:05;5.20;99.90
2202;DHT22;1107;48.654;9.250;2024-02-14T07:12:32;5.20;99.90
2202;DHT22;1107;48.654;9.250;2024-02-14T07:15:00;5.30;99.90
2202;DHT22;1107;48.654;9.250;2024-02-14T07:17:26;5.30;99.90
2202;DHT22;1107;48.654;9.250;2024-02-14T07:19:53;5.30;99.90
2202;DHT22;1107;48.654;9.250;2024-02-14T07:22:20;5.30;99.90
2202;DHT22;1107;48.654;9.250;2024-02-14T07:24:47;5.40;99.90
2202;DHT22;1107;48.654;9.250;2024-02-14T07:27:13;5.40;99.90
2202;DHT22;1107;48.654;9.250;2024-02-14T07:29:40;5.40;99.90
2202;DHT22;1107;48.654;9.250;2024-02-14T07:32:08;5.50;99.90
2202;DHT22;1107;48.654;9.250;2024-02-14T07:34:37;5.60;99.90
2202;DHT22;1107;48.654;9.250;2024-02-14T07:37:04;5.80;99.90
2202;DHT22;1107;48.654;9.250;2024-02-14T07:39:31;6.20;99.90
2202;DHT22;1107;48.654;9.250;2024-02-14T07:42:00;6.50;99.90
2202;DHT22;1107;48.654;9.250;2024-02-14T07:44:26;6.90;99.90
2202;DHT22;1107;48.654;9.250;2024-02-14T07:46:53;6.70;99.90
2202;DHT22;1107;48.654;9.250;2024-02-14T07:49:21;6.50;99.90
2202;DHT22;1107;48.654;9.250;2024-02-14T07:51:48;6.20;99.90
2202;DHT22;1107;48.654;9.250;2024-02-14T07:54:16;6.10;99.90
2202;DHT22;1107;48.654;9.250;2024-02-14T07:56:42;6.00;99.90
2202;DHT22;1107;48.654;9.250;2024-02-14T07:59:09;5.90;99.90
2202;DHT22;1107;48.654;9.250;2024-02-14T08:01:36;5.90;99.90
2202;DHT22;1107;48.654;9.250;2024-02-14T08:04:03;6.00;99.90
2202;DHT22;1107;48.654;9.250;2024-02-14T08:06:31;6.00;99.90
2202;DHT22;1107;48.654;9.250;2024-02-14T08:08:59;6.00;99.90
2202;DHT22;1107;48.654;9.250;2024-02-14T08:11:28;5.90;99.90
2202;DHT22;1107;48.654;9.250;2024-02-14T08:13:55;5.90;99.90
2202;DHT22;1107;48.654;9.250;2024-02-14T08:16:21;6.00;99.90
2202;DHT22;1107;48.654;9.250;2024-02-14T08:18:48;6.10;99.90
2202;DHT22;1107;48.654;9.250;2024-02-14T08:21:16;6.00;99.90
2202;DHT22;1107;48.654;9.250;2024-02-14T08:23:44;6.00;99.90
2202;DHT22;1107;48.654;9.250;2024-02-14T08:26:11;6.00;99.90
2202;DHT22;1107;48.654;9.250;2024-02-14T08:28:37;6.10;99.90
2202;DHT22;1107;48.654;9.250;2024-02-14T08:31:09;6.10;99.90
2202;DHT22;1107;48.654;9.250;2024-02-14T08:33:35;6.30;99.90
2202;DHT22;1107;48.654;9.250;2024-02-14T08:36:02;6.30;99.90
2202;DHT22;1107;48.654;9.250;2024-02-14T08:38:29;6.50;99.90
2202;DHT22;1107;48.654;9.250;2024-02-14T08:40:57;6.60;99.90
2202;DHT22;1107;48.654;9.250;2024-02-14T08:43:24;6.60;99.90
2202;DHT22;1107;48.654;9.250;2024-02-14T08:45:51;6.80;99.90
2202;DHT22;1107;48.654;9.250;2024-02-14T08:48:18;6.90;99.90
2202;DHT22;1107;48.654;9.250;2024-02-14T08:50:45;6.90;99.90
2202;DHT22;1107;48.654;9.250;2024-02-14T08:53:12;7.00;99.90
2202;DHT22;1107;48.654;9.250;2024-02-14T08:55:39;7.10;99.90
2202;DHT22;1107;48.654;9.250;2024-02-14T08:58:07;7.20;99.90
2202;DHT22;1107;48.654;9.250;2024-02-14T09:00:35;7.40;99.90
2202;DHT22;1107;48.654;9.250;2024-02-14T09:03:02;7.30;99.90
2202;DHT22;1107;48.654;9.250;2024-02-14T09:05:29;7.40;99.90
2202;DHT22;1107;48.654;9.250;2024-02-14T09:07:56;7.40;99.90
2202;DHT22;1107;48.654;9.250;2024-02-14T09:10:23;7.40;99.90
2202;DHT22;1107;48.654;9.250;2024-02-14T09:12:50;7.50;99.90
2202;DHT22;1107;48.654;9.250;2024-02-14T09:15:18;7.60;99.90
2202;DHT22;1107;48.654;9.250;2024-02-14T09:17:44;7.60;99.90
2202;DHT22;1107;48.654;9.250;2024-02-14T09:20:11;7.70;99.90
2202;DHT22;1107;48.654;9.250;2024-02-14T09:22:39;7.80;99.90
2202;DHT22;1107;48.654;9.250;2024-02-14T09:25:07;7.90;99.90
2202;DHT22;1107;48.654;9.250;2024-02-14T09:27:35;8.00;99.90
2202;DHT22;1107;48.654;9.250;2024-02-14T09:30:01;8.20;99.90
2202;DHT22;1107;48.654;9.250;2024-02-14T09:32:31;8.30;99.90
2202;DHT22;1107;48.654;9.250;2024-02-14T09:34:58;8.40;99.90
2202;DHT22;1107;48.654;9.250;2024-02-14T09:37:25;8.50;99.90
2202;DHT22;1107;48.654;9.250;2024-02-14T09:39:51;8.70;99.90
2202;DHT22;1107;48.654;9.250;2024-02-14T09:42:19;8.90;99.90
2202;DHT22;1107;48.654;9.250;2024-02-14T09:44:48;9.10;99.90
2202;DHT22;1107;48.654;9.250;2024-02-14T09:47:16;9.50;99.90
2202;DHT22;1107;48.654;9.250;2024-02-14T09:49:44;9.90;99.90
2202;DHT22;1107;48.654;9.250;2024-02-14T09:52:12;10.20;99.90
2202;DHT22;1107;48.654;9.250;2024-02-14T09:54:39;10.40;99.90
2202;DHT22;1107;48.654;9.250;2024-02-14T09:57:06;10.60;99.90
2202;DHT22;1107;48.654;9.250;2024-02-14T09:59:33;10.90;99.90
2202;DHT22;1107;48.654;9.250;2024-02-14T10:02:01;11.50;99.90
2202;DHT22;1107;48.654;9.250;2024-02-14T10:04:28;11.50;99.90
2202;DHT22;1107;48.654;9.250;2024-02-14T10:06:57;11.80;99.90
2202;DHT22;1107;48.654;9.250;2024-02-14T10:09:25;12.20;99.90
2202;DHT22;1107;48.654;9.250;2024-02-14T10:11:51;12.60;99.90
2202;DHT22;1107;48.654;9.250;2024-02-14T10:14:19;13.30;99.90
2202;DHT22;1107;48.654;9.250;2024-02-14T10:16:46;13.40;99.90
2202;DHT22;1107;48.654;9.250;2024-02-14T10:19:16;14.20;99.90
2202;DHT22;1107;48.654;9.250;2024-02-14T10:21:43;14.90;99.90
2202;DHT22;1107;48.654;9.250;2024-02-14T10:24:22;14.70;99.90
2202;DHT22;1107;48.654;9.250;2024-02-14T10:26:50;14.60;99.90
2202;DHT22;1107;48.654;9.250;2024-02-14T10:29:17;14.00;99.90
2202;DHT22;1107;48.654;9.250;2024-02-14T10:31:46;14.60;99.90
2202;DHT22;1107;48.654;9.250;2024-02-14T10:34:14;15.50;99.90
2202;DHT22;1107;48.654;9.250;2024-02-14T10:36:42;15.90;99.90
2202;DHT22;1107;48.654;9.250;2024-02-14T10:39:11;15.90;99.90
2202;DHT22;1107;48.654;9.250;2024-02-14T10:41:39;16.50;99.90
2202;DHT22;1107;48.654;9.250;2024-02-14T10:44:06;15.80;99.90
2202;DHT22;1107;48.654;9.250;2024-02-14T10:46:37;16.30;99.90
2202;DHT22;1107;48.654;9.250;2024-02-14T10:49:05;17.30;99.90
2202;DHT22;1107;48.654;9.250;2024-02-14T10:51:33;15.90;99.90
2202;DHT22;1107;48.654;9.250;2024-02-14T10:54:04;15.80;99.90
2202;DHT22;1107;48.654;9.250;2024-02-14T10:56:41;16.20;99.90
2202;DHT22;1107;48.654;9.250;2024-02-14T10:59:08;17.10;99.90
2202;DHT22;1107;48.654;9.250;2024-02-14T11:01:37;16.70;99.90
2202;DHT22;1107;48.654;9.250;2024-02-14T11:04:05;16.50;99.90
2202;DHT22;1107;48.654;9.250;2024-02-14T11:06:32;16.20;99.90
2202;DHT22;1107;48.654;9.250;2024-02-14T11:09:01;16.30;99.90
2202;DHT22;1107;48.654;9.250;2024-02-14T11:11:32;15.80;99.90
2202;DHT22;1107;48.654;9.250;2024-02-14T11:14:01;15.30;99.90
2202;DHT22;1107;48.654;9.250;2024-02-14T11:16:30;14.90;99.90
2202;DHT22;1107;48.654;9.250;2024-02-14T11:19:08;15.00;99.90
2202;DHT22;1107;48.654;9.250;2024-02-14T11:21:36;15.00;99.90
2202;DHT22;1107;48.654;9.250;2024-02-14T11:24:07;14.90;99.90
2202;DHT22;1107;48.654;9.250;2024-02-14T11:26:39;15.00;99.90
2202;DHT22;1107;48.654;9.250;2024-02-14T11:29:07;14.50;99.90
2202;DHT22;1107;48.654;9.250;2024-02-14T11:31:40;14.10;99.90
2202;DHT22;1107;48.654;9.250;2024-02-14T11:34:07;14.00;99.90
2202;DHT22;1107;48.654;9.250;2024-02-14T11:36:35;13.80;99.90
2202;DHT22;1107;48.654;9.250;2024-02-14T11:39:03;13.60;99.90
2202;DHT22;1107;48.654;9.250;2024-02-14T11:41:32;13.40;99.90
2202;DHT22;1107;48.654;9.250;2024-02-14T11:44:01;13.20;99.90
2202;DHT22;1107;48.654;9.250;2024-02-14T11:46:31;13.20;99.90
2202;DHT22;1107;48.654;9.250;2024-02-14T11:48:58;13.00;99.90
2202;DHT22;1107;48.654;9.250;2024-02-14T11:51:28;12.80;99.90
2202;DHT22;1107;48.654;9.250;2024-02-14T11:53:56;13.00;99.90
2202;DHT22;1107;48.654;9.250;2024-02-14T11:56:30;13.00;99.90
2202;DHT22;1107;48.654;9.250;2024-02-14T11:58:59;13.30;99.90
2202;DHT22;1107;48.654;9.250;2024-02-14T12:01:28;13.60;99.90
2202;DHT22;1107;48.654;9.250;2024-02-14T12:03:58;13.70;99.90
2202;DHT22;1107;48.654;9.250;2024-02-14T12:06:26;13.60;99.90
2202;DHT22;1107;48.654;9.250;2024-02-14T12:08:53;13.40;99.90
2202;DHT22;1107;48.654;9.250;2024-02-14T12:11:21;13.30;99.90
2202;DHT22;1107;48.654;9.250;2024-02-14T12:13:49;13.60;99.90
2202;DHT22;1107;48.654;9.250;2024-02-14T12:16:19;15.20;99.90
2202;DHT22;1107;48.654;9.250;2024-02-14T12:18:47;17.00;99.90
2202;DHT22;1107;48.654;9.250;2024-02-14T12:21:15;18.70;99.90
2202;DHT22;1107;48.654;9.250;2024-02-14T12:23:42;20.60;99.90
2202;DHT22;1107;48.654;9.250;2024-02-14T12:26:10;20.40;99.90
2202;DHT22;1107;48.654;9.250;2024-02-14T12:28:46;20.80;99.90
2202;DHT22;1107;48.654;9.250;2024-02-14T12:31:22;19.40;99.90
2202;DHT22;1107;48.654;9.250;2024-02-14T12:33:49;18.00;99.90
2202;DHT22;1107;48.654;9.250;2024-02-14T12:36:19;17.00;99.90
2202;DHT22;1107;48.654;9.250;2024-02-14T12:38:46;16.30;99.90
2202;DHT22;1107;48.654;9.250;2024-02-14T12:41:14;15.90;99.90
2202;DHT22;1107;48.654;9.250;2024-02-14T12:43:41;15.70;99.90
2202;DHT22;1107;48.654;9.250;2024-02-14T12:46:07;15.30;99.90
2202;DHT22;1107;48.654;9.250;2024-02-14T12:48:35;15.30;99.90
2202;DHT22;1107;48.654;9.250;2024-02-14T12:51:02;15.30;99.90
2202;DHT22;1107;48.654;9.250;2024-02-14T12:53:30;15.30;99.90
2202;DHT22;1107;48.654;9.250;2024-02-14T12:55:57;15.30;99.90
2202;DHT22;1107;48.654;9.250;2024-02-14T12:58:24;14.80;99.90
2202;DHT22;1107;48.654;9.250;2024-02-14T13:00:52;15.00;99.90
2202;DHT22;1107;48.654;9.250;2024-02-14T13:03:19;14.80;99.90
2202;DHT22;1107;48.654;9.250;2024-02-14T13:05:46;14.40;99.90
2202;DHT22;1107;48.654;9.250;2024-02-14T13:08:13;14.30;99.90
2202;DHT22;1107;48.654;9.250;2024-02-14T13:10:43;14.20;99.90
2202;DHT22;1107;48.654;9.250;2024-02-14T13:13:10;14.30;99.90
2202;DHT22;1107;48.654;9.250;2024-02-14T13:15:37;14.50;99.90
2202;DHT22;1107;48.654;9.250;2024-02-14T13:18:06;14.60;99.90
2202;DHT22;1107;48.654;9.250;2024-02-14T13:20:33;14.70;99.90
2202;DHT22;1107;48.654;9.250;2024-02-14T13:23:01;14.70;99.90
2202;DHT22;1107;48.654;9.250;2024-02-14T13:25:29;14.70;99.90
2202;DHT22;1107;48.654;9.250;2024-02-14T13:27:57;14.60;99.90
2202;DHT22;1107;48.654;9.250;2024-02-14T13:30:24;14.30;99.90
2202;DHT22;1107;48.654;9.250;2024-02-14T13:32:51;14.40;99.90
2202;DHT22;1107;48.654;9.250;2024-02-14T13:35:19;14.50;99.90
2202;DHT22;1107;48.654;9.250;2024-02-14T13:37:46;14.60;99.90
2202;DHT22;1107;48.654;9.250;2024-02-14T13:40:13;14.70;99.90
2202;DHT22;1107;48.654;9.250;2024-02-14T13:42:40;14.90;99.90
2202;DHT22;1107;48.654;9.250;2024-02-14T13:45:08;14.90;99.90
2202;DHT22;1107;48.654;9.250;2024-02-14T13:47:36;14.90;99.90
2202;DHT22;1107;48.654;9.250;2024-02-14T13:50:05;15.00;99.90
2202;DHT22;1107;48.654;9.250;2024-02-14T13:52:32;15.30;99.90
2202;DHT22;1107;48.654;9.250;2024-02-14T13:55:00;15.20;99.90
2202;DHT22;1107;48.654;9.250;2024-02-14T13:57:28;15.10;99.90
2202;DHT22;1107;48.654;9.250;2024-02-14T13:59:56;15.00;99.90
2202;DHT22;1107;48.654;9.250;2024-02-14T14:02:24;14.80;99.90
2202;DHT22;1107;48.654;9.250;2024-02-14T14:04:51;14.60;99.90
2202;DHT22;1107;48.654;9.250;2024-02-14T14:07:19;14.40;99.90
2202;DHT22;1107;48.654;9.250;2024-02-14T14:09:46;14.20;99.90
2202;DHT22;1107;48.654;9.250;2024-02-14T14:12:13;13.80;99.90
2202;DHT22;1107;48.654;9.250;2024-02-14T14:14:40;13.60;99.90
2202;DHT22;1107;48.654;9.250;2024-02-14T14:17:07;13.60;99.90
2202;DHT22;1107;48.654;9.250;2024-02-14T14:19:35;13.60;99.90
2202;DHT22;1107;48.654;9.250;2024-02-14T14:22:02;13.60;99.90
2202;DHT22;1107;48.654;9.250;2024-02-14T14:24:29;13.60;99.90
2202;DHT22;1107;48.654;9.250;2024-02-14T14:26:57;13.70;99.90
2202;DHT22;1107;48.654;9.250;2024-02-14T14:29:24;13.60;99.90
2202;DHT22;1107;48.654;9.250;2024-02-14T14:31:51;13.60;99.90
2202;DHT22;1107;48.654;9.250;2024-02-14T14:34:18;13.40;99.90
2202;DHT22;1107;48.654;9.250;2024-02-14T14:36:46;13.50;99.90
2202;DHT22;1107;48.654;9.250;2024-02-14T14:39:13;13.50;99.90
2202;DHT22;1107;48.654;9.250;2024-02-14T14:41:40;13.60;99.90
2202;DHT22;1107;48.654;9.250;2024-02-14T14:44:08;13.60;99.90
2202;DHT22;1107;48.654;9.250;2024-02-14T14:46:35;13.60;99.90
2202;DHT22;1107;48.654;9.250;2024-02-14T14:49:07;13.60;99.90
2202;DHT22;1107;48.654;9.250;2024-02-14T14:51:34;13.60;99.90
2202;DHT22;1107;48.654;9.250;2024-02-14T14:54:03;13.70;99.90
2202;DHT22;1107;48.654;9.250;2024-02-14T14:56:30;13.90;99.90
2202;DHT22;1107;48.654;9.250;2024-02-14T14:58:57;14.10;99.90
2202;DHT22;1107;48.654;9.250;2024-02-14T15:01:25;14.20;99.90
2202;DHT22;1107;48.654;9.250;2024-02-14T15:03:53;14.20;99.90
2202;DHT22;1107;48.654;9.250;2024-02-14T15:06:20;14.10;99.90
2202;DHT22;1107;48.654;9.250;2024-02-14T15:08:47;14.10;99.90
2202;DHT22;1107;48.654;9.250;2024-02-14T15:11:15;14.00;99.90
2202;DHT22;1107;48.654;9.250;2024-02-14T15:13:44;13.90;99.90
2202;DHT22;1107;48.654;9.250;2024-02-14T15:16:11;13.90;99.90
2202;DHT22;1107;48.654;9.250;2024-02-14T15:18:38;13.90;99.90
2202;DHT22;1107;48.654;9.250;2024-02-14T15:21:07;13.90;99.90
2202;DHT22;1107;48.654;9.250;2024-02-14T15:23:34;14.10;99.90
2202;DHT22;1107;48.654;9.250;2024-02-14T15:26:01;14.70;99.90
2202;DHT22;1107;48.654;9.250;2024-02-14T15:28:31;14.90;99.90
2202;DHT22;1107;48.654;9.250;2024-02-14T15:30:59;15.00;99.90
2202;DHT22;1107;48.654;9.250;2024-02-14T15:33:44;15.10;99.90
2202;DHT22;1107;48.654;9.250;2024-02-14T15:36:11;14.80;99.90
2202;DHT22;1107;48.654;9.250;2024-02-14T15:38:38;14.60;99.90
2202;DHT22;1107;48.654;9.250;2024-02-14T15:41:05;14.30;99.90
2202;DHT22;1107;48.654;9.250;2024-02-14T15:43:34;14.10;99.90
2202;DHT22;1107;48.654;9.250;2024-02-14T15:46:01;13.90;99.90
2202;DHT22;1107;48.654;9.250;2024-02-14T15:48:28;13.70;99.90
2202;DHT22;1107;48.654;9.250;2024-02-14T15:50:55;13.60;99.90
2202;DHT22;1107;48.654;9.250;2024-02-14T15:53:23;13.50;99.90
2202;DHT22;1107;48.654;9.250;2024-02-14T15:55:52;13.40;99.90
2202;DHT22;1107;48.654;9.250;2024-02-14T15:58:19;13.30;99.90
2202;DHT22;1107;48.654;9.250;2024-02-14T16:00:48;13.30;99.90
2202;DHT22;1107;48.654;9.250;2024-02-14T16:03:15;13.20;99.90
2202;DHT22;1107;48.654;9.250;2024-02-14T16:05:42;13.10;99.90
2202;DHT22;1107;48.654;9.250;2024-02-14T16:08:14;12.90;99.90
2202;DHT22;1107;48.654;9.250;2024-02-14T16:10:42;12.90;99.90
2202;DHT22;1107;48.654;9.250;2024-02-14T16:13:10;12.90;99.90